Yamagata Airport, Japan

2:51 AM JST on February 11, 2016 (GMT +0900)
Yamagata | | Change Station
CLOSE
Current Station
Airport
Location: Yamagata Airport,
Elevation: 354 ft
Nearby Weather Stations

Elev 354 ft 38.41 °N, 140.37 °E | Updated 7 hours ago

Mostly Cloudy
Mostly Cloudy
30 °F
Feels Like 23 °F
N
7
Wind Variable Wind from NW
Gusts mph

Today
High -- | Low -- °F
--% Chance of Precip.
Yesterday
High -- | Low -- °F
Precip. -- in
Pressure 30.21 in
Visibility 4.3 miles
Clouds Few 500 ft
Scattered Clouds 900 ft
Mostly Cloudy 1500 ft
Windchill 23 °F
Dew Point 24 °F
Humidity 78%
Rainfall 0.00 in
Snow Depth Not available.
6:34 AM 5:11 PM
Waxing Crescent, 6% visible
METAR RJSC 101000Z 27004KT 240V300 7000 -SHSN FEW005 SCT009 BKN015 M01/M04 Q1023
Pressure 30.21 in
Visibility 4.3 miles
Clouds Few 500 ft
Scattered Clouds 900 ft
Mostly Cloudy 1500 ft
Windchill 23 °F
Dew Point 24 °F
Humidity 78%
Rainfall 0.00 in
Snow Depth Not available.
6:34 AM 5:11 PM
Waxing Crescent, 6% visible
METAR RJSC 101000Z 27004KT 240V300 7000 -SHSN FEW005 SCT009 BKN015 M01/M04 Q1023

10-Day Weather Forecast

No radar image for this location.
×

Almanac

Astronomy

Feb. 11, 2016 Rise Set
Actual Time
Civil Twilight
Nautical Twilight
Astronomical Twilight
Moon
Length of Visible Light
Length of Day
Tomorrow will be .
, % of the Moon is Illuminated

Today's Extremes

Country Highs Country Lows

Community

WunderPhotos

Upload Photos

1,891,899 photos uploaded!

WunderBlog® & News

Nearby

Air Quality

  Air Quality AQ Index Pollutant
Not available.

Snow Depth

Station Depth Elevation

Earthquake Activity

City Distance Mag. Time & Date
Minimum magnitude displayed is 2.5.

Coastal Water Temperatures

Place Temperature

Stations

Nearby Weather Stations

Station Location Temp. Windchill Dew Point Humidity Wind Precip. Elev Updated Type